sensor_id;sensor_type;location;lat;lon;timestamp;temperature;humidity
73780;SHT30;62093;37.614;15.072;2024-01-16T00:01:46;16.02;61.43
73780;SHT30;62093;37.614;15.072;2024-01-16T00:04:12;15.98;61.59
73780;SHT30;62093;37.614;15.072;2024-01-16T00:06:40;16.00;61.73
73780;SHT30;62093;37.614;15.072;2024-01-16T00:09:06;16.02;61.52
73780;SHT30;62093;37.614;15.072;2024-01-16T00:11:32;16.01;61.30
73780;SHT30;62093;37.614;15.072;2024-01-16T00:13:58;16.01;61.59
73780;SHT30;62093;37.614;15.072;2024-01-16T00:16:24;15.94;61.59
73780;SHT30;62093;37.614;15.072;2024-01-16T00:18:50;15.97;61.86
73780;SHT30;62093;37.614;15.072;2024-01-16T00:21:16;15.94;61.55
73780;SHT30;62093;37.614;15.072;2024-01-16T00:23:42;15.85;61.65
73780;SHT30;62093;37.614;15.072;2024-01-16T00:26:08;15.91;61.84
73780;SHT30;62093;37.614;15.072;2024-01-16T00:28:34;15.94;61.78
73780;SHT30;62093;37.614;15.072;2024-01-16T00:31:00;15.94;61.73
73780;SHT30;62093;37.614;15.072;2024-01-16T00:33:26;15.84;61.92
73780;SHT30;62093;37.614;15.072;2024-01-16T00:35:53;15.90;61.75
73780;SHT30;62093;37.614;15.072;2024-01-16T00:38:19;15.88;62.07
73780;SHT30;62093;37.614;15.072;2024-01-16T00:40:45;15.82;62.03
73780;SHT30;62093;37.614;15.072;2024-01-16T00:43:11;15.88;61.89
73780;SHT30;62093;37.614;15.072;2024-01-16T00:45:38;15.82;61.97
73780;SHT30;62093;37.614;15.072;2024-01-16T00:48:06;15.80;61.98
73780;SHT30;62093;37.614;15.072;2024-01-16T00:50:32;15.78;61.84
73780;SHT30;62093;37.614;15.072;2024-01-16T00:52:57;15.82;62.00
73780;SHT30;62093;37.614;15.072;2024-01-16T00:55:23;15.85;61.80
73780;SHT30;62093;37.614;15.072;2024-01-16T00:57:49;15.78;61.99
73780;SHT30;62093;37.614;15.072;2024-01-16T01:00:15;15.72;62.05
73780;SHT30;62093;37.614;15.072;2024-01-16T01:02:41;15.75;62.14
73780;SHT30;62093;37.614;15.072;2024-01-16T01:05:07;15.78;62.00
73780;SHT30;62093;37.614;15.072;2024-01-16T01:07:33;15.81;61.89
73780;SHT30;62093;37.614;15.072;2024-01-16T01:09:59;15.80;61.88
73780;SHT30;62093;37.614;15.072;2024-01-16T01:12:25;15.75;61.77
73780;SHT30;62093;37.614;15.072;2024-01-16T01:14:51;15.74;61.97
73780;SHT30;62093;37.614;15.072;2024-01-16T01:17:16;15.72;61.89
73780;SHT30;62093;37.614;15.072;2024-01-16T01:19:42;15.70;62.03
73780;SHT30;62093;37.614;15.072;2024-01-16T01:22:08;15.74;61.89
73780;SHT30;62093;37.614;15.072;2024-01-16T01:24:34;15.67;62.00
73780;SHT30;62093;37.614;15.072;2024-01-16T01:27:00;15.68;62.16
73780;SHT30;62093;37.614;15.072;2024-01-16T01:29:26;15.70;62.03
73780;SHT30;62093;37.614;15.072;2024-01-16T01:31:51;15.70;61.93
73780;SHT30;62093;37.614;15.072;2024-01-16T01:34:17;15.70;62.13
73780;SHT30;62093;37.614;15.072;2024-01-16T01:36:43;15.65;62.14
73780;SHT30;62093;37.614;15.072;2024-01-16T01:39:09;15.65;61.92
73780;SHT30;62093;37.614;15.072;2024-01-16T01:41:36;15.70;62.14
73780;SHT30;62093;37.614;15.072;2024-01-16T01:44:02;15.72;61.99
73780;SHT30;62093;37.614;15.072;2024-01-16T01:46:29;15.64;61.70
73780;SHT30;62093;37.614;15.072;2024-01-16T01:48:55;15.68;62.00
73780;SHT30;62093;37.614;15.072;2024-01-16T01:51:21;15.64;62.12
73780;SHT30;62093;37.614;15.072;2024-01-16T01:53:49;15.67;62.12
73780;SHT30;62093;37.614;15.072;2024-01-16T01:56:17;15.65;62.20
73780;SHT30;62093;37.614;15.072;2024-01-16T01:58:46;15.68;62.15
73780;SHT30;62093;37.614;15.072;2024-01-16T02:01:13;15.70;61.91
73780;SHT30;62093;37.614;15.072;2024-01-16T02:03:47;15.65;61.89
73780;SHT30;62093;37.614;15.072;2024-01-16T02:06:14;15.67;61.92
73780;SHT30;62093;37.614;15.072;2024-01-16T02:08:42;15.70;62.14
73780;SHT30;62093;37.614;15.072;2024-01-16T02:11:08;15.67;61.79
73780;SHT30;62093;37.614;15.072;2024-01-16T02:13:34;15.70;62.08
73780;SHT30;62093;37.614;15.072;2024-01-16T02:16:00;15.65;62.01
73780;SHT30;62093;37.614;15.072;2024-01-16T02:18:26;15.68;62.09
73780;SHT30;62093;37.614;15.072;2024-01-16T02:20:59;15.63;62.02
73780;SHT30;62093;37.614;15.072;2024-01-16T02:23:27;15.65;62.13
73780;SHT30;62093;37.614;15.072;2024-01-16T02:25:54;15.67;62.16
73780;SHT30;62093;37.614;15.072;2024-01-16T02:28:20;15.68;62.00
73780;SHT30;62093;37.614;15.072;2024-01-16T02:30:46;15.68;62.14
73780;SHT30;62093;37.614;15.072;2024-01-16T02:33:12;15.67;62.29
73780;SHT30;62093;37.614;15.072;2024-01-16T02:35:38;15.67;62.13
73780;SHT30;62093;37.614;15.072;2024-01-16T02:38:04;15.65;62.09
73780;SHT30;62093;37.614;15.072;2024-01-16T02:40:30;15.68;62.01
73780;SHT30;62093;37.614;15.072;2024-01-16T02:42:56;15.71;62.05
73780;SHT30;62093;37.614;15.072;2024-01-16T02:45:22;15.67;62.06
73780;SHT30;62093;37.614;15.072;2024-01-16T02:47:48;15.68;61.98
73780;SHT30;62093;37.614;15.072;2024-01-16T02:50:14;15.71;61.88
73780;SHT30;62093;37.614;15.072;2024-01-16T02:52:40;15.65;61.98
73780;SHT30;62093;37.614;15.072;2024-01-16T02:55:06;15.68;62.20
73780;SHT30;62093;37.614;15.072;2024-01-16T02:57:32;15.72;62.00
73780;SHT30;62093;37.614;15.072;2024-01-16T02:59:58;15.71;61.85
73780;SHT30;62093;37.614;15.072;2024-01-16T03:02:24;15.75;62.04
73780;SHT30;62093;37.614;15.072;2024-01-16T03:04:50;15.71;62.16
73780;SHT30;62093;37.614;15.072;2024-01-16T03:07:16;15.67;62.09
73780;SHT30;62093;37.614;15.072;2024-01-16T03:09:41;15.65;62.02
73780;SHT30;62093;37.614;15.072;2024-01-16T03:12:07;15.68;62.20
73780;SHT30;62093;37.614;15.072;2024-01-16T03:14:33;15.64;61.86
73780;SHT30;62093;37.614;15.072;2024-01-16T03:17:02;15.58;62.05
73780;SHT30;62093;37.614;15.072;2024-01-16T03:19:28;15.61;62.11
73780;SHT30;62093;37.614;15.072;2024-01-16T03:21:54;15.63;61.97
73780;SHT30;62093;37.614;15.072;2024-01-16T03:24:20;15.63;62.08
73780;SHT30;62093;37.614;15.072;2024-01-16T03:26:45;15.61;61.74
73780;SHT30;62093;37.614;15.072;2024-01-16T03:29:11;15.61;61.94
73780;SHT30;62093;37.614;15.072;2024-01-16T03:31:37;15.60;62.24
73780;SHT30;62093;37.614;15.072;2024-01-16T03:34:03;15.64;61.93
73780;SHT30;62093;37.614;15.072;2024-01-16T03:36:29;15.60;62.25
73780;SHT30;62093;37.614;15.072;2024-01-16T03:38:56;15.58;61.93
73780;SHT30;62093;37.614;15.072;2024-01-16T03:41:22;15.58;62.28
73780;SHT30;62093;37.614;15.072;2024-01-16T03:43:48;15.60;62.17
73780;SHT30;62093;37.614;15.072;2024-01-16T03:46:14;15.58;62.38
73780;SHT30;62093;37.614;15.072;2024-01-16T03:48:40;15.60;62.03
73780;SHT30;62093;37.614;15.072;2024-01-16T03:51:06;15.57;62.14
73780;SHT30;62093;37.614;15.072;2024-01-16T03:53:32;15.60;61.90
73780;SHT30;62093;37.614;15.072;2024-01-16T03:55:58;15.58;62.01
73780;SHT30;62093;37.614;15.072;2024-01-16T03:58:24;15.57;61.97
73780;SHT30;62093;37.614;15.072;2024-01-16T04:00:50;15.60;61.83
73780;SHT30;62093;37.614;15.072;2024-01-16T04:03:17;15.57;62.07
73780;SHT30;62093;37.614;15.072;2024-01-16T04:05:43;15.57;62.17
73780;SHT30;62093;37.614;15.072;2024-01-16T04:08:09;15.57;62.23
73780;SHT30;62093;37.614;15.072;2024-01-16T04:10:35;15.57;61.79
73780;SHT30;62093;37.614;15.072;2024-01-16T04:13:01;15.63;61.87
73780;SHT30;62093;37.614;15.072;2024-01-16T04:15:28;15.58;61.43
73780;SHT30;62093;37.614;15.072;2024-01-16T04:17:54;15.58;61.86
73780;SHT30;62093;37.614;15.072;2024-01-16T04:20:20;15.55;61.92
73780;SHT30;62093;37.614;15.072;2024-01-16T04:22:46;15.57;61.91
73780;SHT30;62093;37.614;15.072;2024-01-16T04:25:12;15.55;61.81
73780;SHT30;62093;37.614;15.072;2024-01-16T04:27:38;15.50;61.69
73780;SHT30;62093;37.614;15.072;2024-01-16T04:30:05;15.53;61.93
73780;SHT30;62093;37.614;15.072;2024-01-16T04:32:31;15.54;62.40
73780;SHT30;62093;37.614;15.072;2024-01-16T04:34:57;15.54;62.03
73780;SHT30;62093;37.614;15.072;2024-01-16T04:37:22;15.55;61.90
73780;SHT30;62093;37.614;15.072;2024-01-16T04:39:49;15.55;62.26
73780;SHT30;62093;37.614;15.072;2024-01-16T04:42:15;15.55;62.18
73780;SHT30;62093;37.614;15.072;2024-01-16T04:44:43;15.51;61.73
73780;SHT30;62093;37.614;15.072;2024-01-16T04:47:09;15.51;62.07
73780;SHT30;62093;37.614;15.072;2024-01-16T04:49:36;15.54;61.80
73780;SHT30;62093;37.614;15.072;2024-01-16T04:52:02;15.54;61.95
73780;SHT30;62093;37.614;15.072;2024-01-16T04:54:28;15.53;61.83
73780;SHT30;62093;37.614;15.072;2024-01-16T04:56:54;15.50;61.77
73780;SHT30;62093;37.614;15.072;2024-01-16T04:59:20;15.53;61.81
73780;SHT30;62093;37.614;15.072;2024-01-16T05:01:46;15.54;62.05
73780;SHT30;62093;37.614;15.072;2024-01-16T05:04:12;15.63;61.57
73780;SHT30;62093;37.614;15.072;2024-01-16T05:06:38;15.60;61.71
73780;SHT30;62093;37.614;15.072;2024-01-16T05:09:04;15.63;61.60
73780;SHT30;62093;37.614;15.072;2024-01-16T05:11:30;15.63;61.97
73780;SHT30;62093;37.614;15.072;2024-01-16T05:13:56;15.58;62.09
73780;SHT30;62093;37.614;15.072;2024-01-16T05:16:25;15.57;61.38
73780;SHT30;62093;37.614;15.072;2024-01-16T05:18:52;15.58;62.05
73780;SHT30;62093;37.614;15.072;2024-01-16T05:21:20;15.57;62.17
73780;SHT30;62093;37.614;15.072;2024-01-16T05:23:46;15.54;61.93
73780;SHT30;62093;37.614;15.072;2024-01-16T05:26:12;15.53;62.09
73780;SHT30;62093;37.614;15.072;2024-01-16T05:28:39;15.54;61.98
73780;SHT30;62093;37.614;15.072;2024-01-16T05:31:05;15.54;62.12
73780;SHT30;62093;37.614;15.072;2024-01-16T05:33:33;15.51;61.88
73780;SHT30;62093;37.614;15.072;2024-01-16T05:35:58;15.51;62.10
73780;SHT30;62093;37.614;15.072;2024-01-16T05:38:24;15.49;62.03
73780;SHT30;62093;37.614;15.072;2024-01-16T05:40:50;15.51;62.04
73780;SHT30;62093;37.614;15.072;2024-01-16T05:43:17;15.51;62.14
73780;SHT30;62093;37.614;15.072;2024-01-16T05:45:43;15.54;62.14
73780;SHT30;62093;37.614;15.072;2024-01-16T05:48:09;15.51;62.01
73780;SHT30;62093;37.614;15.072;2024-01-16T05:50:36;15.51;62.13
73780;SHT30;62093;37.614;15.072;2024-01-16T05:53:02;15.51;62.21
73780;SHT30;62093;37.614;15.072;2024-01-16T05:55:29;15.50;62.12
73780;SHT30;62093;37.614;15.072;2024-01-16T05:57:58;15.47;62.07
73780;SHT30;62093;37.614;15.072;2024-01-16T06:00:26;15.51;62.44
73780;SHT30;62093;37.614;15.072;2024-01-16T06:02:52;15.53;62.15
73780;SHT30;62093;37.614;15.072;2024-01-16T06:05:18;15.53;62.28
73780;SHT30;62093;37.614;15.072;2024-01-16T06:07:44;15.50;62.18
73780;SHT30;62093;37.614;15.072;2024-01-16T06:10:14;15.51;61.89
73780;SHT30;62093;37.614;15.072;2024-01-16T06:12:40;15.50;62.35
73780;SHT30;62093;37.614;15.072;2024-01-16T06:15:06;15.50;62.03
73780;SHT30;62093;37.614;15.072;2024-01-16T06:17:32;15.54;62.05
73780;SHT30;62093;37.614;15.072;2024-01-16T06:19:58;15.50;62.04
73780;SHT30;62093;37.614;15.072;2024-01-16T06:22:23;15.53;62.23
73780;SHT30;62093;37.614;15.072;2024-01-16T06:24:49;15.53;62.36
73780;SHT30;62093;37.614;15.072;2024-01-16T06:27:15;15.50;62.15
73780;SHT30;62093;37.614;15.072;2024-01-16T06:29:45;15.50;62.15
73780;SHT30;62093;37.614;15.072;2024-01-16T06:32:11;15.54;62.39
73780;SHT30;62093;37.614;15.072;2024-01-16T06:34:37;15.49;62.29
73780;SHT30;62093;37.614;15.072;2024-01-16T06:37:03;15.50;62.13
73780;SHT30;62093;37.614;15.072;2024-01-16T06:39:29;15.51;62.18
73780;SHT30;62093;37.614;15.072;2024-01-16T06:41:55;15.54;62.11
73780;SHT30;62093;37.614;15.072;2024-01-16T06:44:21;15.47;61.97
73780;SHT30;62093;37.614;15.072;2024-01-16T06:46:47;15.51;61.98
73780;SHT30;62093;37.614;15.072;2024-01-16T06:49:13;15.49;61.99
73780;SHT30;62093;37.614;15.072;2024-01-16T06:51:39;15.54;62.19
73780;SHT30;62093;37.614;15.072;2024-01-16T06:54:05;15.55;62.19
73780;SHT30;62093;37.614;15.072;2024-01-16T06:56:31;15.50;62.29
73780;SHT30;62093;37.614;15.072;2024-01-16T06:58:57;15.51;62.33
73780;SHT30;62093;37.614;15.072;2024-01-16T07:01:23;15.51;62.31
73780;SHT30;62093;37.614;15.072;2024-01-16T07:03:49;15.49;62.43
73780;SHT30;62093;37.614;15.072;2024-01-16T07:06:15;15.53;62.35
73780;SHT30;62093;37.614;15.072;2024-01-16T07:08:41;15.50;62.41
73780;SHT30;62093;37.614;15.072;2024-01-16T07:11:07;15.47;62.30
73780;SHT30;62093;37.614;15.072;2024-01-16T07:13:34;15.47;62.28
73780;SHT30;62093;37.614;15.072;2024-01-16T07:16:00;15.50;62.60
73780;SHT30;62093;37.614;15.072;2024-01-16T07:18:29;15.49;62.04
73780;SHT30;62093;37.614;15.072;2024-01-16T07:20:55;15.55;62.38
73780;SHT30;62093;37.614;15.072;2024-01-16T07:23:21;15.55;62.52
73780;SHT30;62093;37.614;15.072;2024-01-16T07:25:47;15.55;62.45
73780;SHT30;62093;37.614;15.072;2024-01-16T07:28:13;15.54;62.38
73780;SHT30;62093;37.614;15.072;2024-01-16T07:30:40;15.53;62.03
73780;SHT30;62093;37.614;15.072;2024-01-16T07:33:06;15.55;62.38
73780;SHT30;62093;37.614;15.072;2024-01-16T07:35:31;15.57;62.15
73780;SHT30;62093;37.614;15.072;2024-01-16T07:37:57;15.57;62.19
73780;SHT30;62093;37.614;15.072;2024-01-16T07:40:23;15.58;61.92
73780;SHT30;62093;37.614;15.072;2024-01-16T07:42:49;15.60;62.07
73780;SHT30;62093;37.614;15.072;2024-01-16T07:45:15;15.61;61.95
73780;SHT30;62093;37.614;15.072;2024-01-16T07:47:41;15.61;62.31
73780;SHT30;62093;37.614;15.072;2024-01-16T07:50:07;15.61;62.08
73780;SHT30;62093;37.614;15.072;2024-01-16T07:52:33;15.64;62.31
73780;SHT30;62093;37.614;15.072;2024-01-16T07:54:59;15.63;62.42
73780;SHT30;62093;37.614;15.072;2024-01-16T07:57:24;15.65;62.31
73780;SHT30;62093;37.614;15.072;2024-01-16T07:59:50;15.67;62.26
73780;SHT30;62093;37.614;15.072;2024-01-16T08:02:16;15.67;62.09
73780;SHT30;62093;37.614;15.072;2024-01-16T08:04:42;15.68;62.05
73780;SHT30;62093;37.614;15.072;2024-01-16T08:07:08;15.71;62.07
73780;SHT30;62093;37.614;15.072;2024-01-16T08:09:34;15.67;62.16
73780;SHT30;62093;37.614;15.072;2024-01-16T08:12:00;15.72;62.29
73780;SHT30;62093;37.614;15.072;2024-01-16T08:14:28;15.74;61.97
73780;SHT30;62093;37.614;15.072;2024-01-16T08:16:54;15.74;62.02
73780;SHT30;62093;37.614;15.072;2024-01-16T08:19:20;15.75;61.95
73780;SHT30;62093;37.614;15.072;2024-01-16T08:21:46;15.72;62.15
73780;SHT30;62093;37.614;15.072;2024-01-16T08:24:12;15.71;62.12
73780;SHT30;62093;37.614;15.072;2024-01-16T08:26:38;15.77;61.95
73780;SHT30;62093;37.614;15.072;2024-01-16T08:29:04;15.75;61.97
73780;SHT30;62093;37.614;15.072;2024-01-16T08:31:30;15.77;62.06
73780;SHT30;62093;37.614;15.072;2024-01-16T08:33:56;15.75;61.96
73780;SHT30;62093;37.614;15.072;2024-01-16T08:36:23;15.78;61.82
73780;SHT30;62093;37.614;15.072;2024-01-16T08:38:48;15.77;61.90
73780;SHT30;62093;37.614;15.072;2024-01-16T08:41:15;15.75;62.03
73780;SHT30;62093;37.614;15.072;2024-01-16T08:43:40;15.82;61.82
73780;SHT30;62093;37.614;15.072;2024-01-16T08:46:06;15.82;61.85
73780;SHT30;62093;37.614;15.072;2024-01-16T08:48:32;15.82;61.80
73780;SHT30;62093;37.614;15.072;2024-01-16T08:50:58;15.87;61.67
73780;SHT30;62093;37.614;15.072;2024-01-16T08:53:24;15.84;61.73
73780;SHT30;62093;37.614;15.072;2024-01-16T08:55:50;15.90;61.50
73780;SHT30;62093;37.614;15.072;2024-01-16T08:58:16;15.88;61.62
73780;SHT30;62093;37.614;15.072;2024-01-16T09:00:41;15.85;61.68
73780;SHT30;62093;37.614;15.072;2024-01-16T09:03:07;15.90;61.70
73780;SHT30;62093;37.614;15.072;2024-01-16T09:05:34;15.90;61.67
73780;SHT30;62093;37.614;15.072;2024-01-16T09:08:04;15.90;61.61
73780;SHT30;62093;37.614;15.072;2024-01-16T09:10:30;15.92;61.60
73780;SHT30;62093;37.614;15.072;2024-01-16T09:12:56;15.94;61.65
73780;SHT30;62093;37.614;15.072;2024-01-16T09:15:21;15.91;61.54
73780;SHT30;62093;37.614;15.072;2024-01-16T09:17:47;16.02;61.40
73780;SHT30;62093;37.614;15.072;2024-01-16T09:20:13;16.01;61.38
73780;SHT30;62093;37.614;15.072;2024-01-16T09:22:39;16.02;61.22
73780;SHT30;62093;37.614;15.072;2024-01-16T09:25:06;16.01;61.45
73780;SHT30;62093;37.614;15.072;2024-01-16T09:27:32;16.01;61.41
73780;SHT30;62093;37.614;15.072;2024-01-16T09:29:57;16.02;61.27
73780;SHT30;62093;37.614;15.072;2024-01-16T09:32:23;16.01;61.43
73780;SHT30;62093;37.614;15.072;2024-01-16T09:34:49;16.01;61.48
73780;SHT30;62093;37.614;15.072;2024-01-16T09:37:15;16.04;61.48
73780;SHT30;62093;37.614;15.072;2024-01-16T09:39:41;16.02;61.47
73780;SHT30;62093;37.614;15.072;2024-01-16T09:42:08;16.02;61.39
73780;SHT30;62093;37.614;15.072;2024-01-16T09:44:34;16.05;61.38
73780;SHT30;62093;37.614;15.072;2024-01-16T09:47:01;16.05;61.30
73780;SHT30;62093;37.614;15.072;2024-01-16T09:49:31;16.08;61.24
73780;SHT30;62093;37.614;15.072;2024-01-16T09:51:57;16.05;61.17
73780;SHT30;62093;37.614;15.072;2024-01-16T09:54:24;16.08;61.23
73780;SHT30;62093;37.614;15.072;2024-01-16T09:56:54;16.08;61.22
73780;SHT30;62093;37.614;15.072;2024-01-16T09:59:24;16.11;61.24
73780;SHT30;62093;37.614;15.072;2024-01-16T10:01:51;16.12;61.13
73780;SHT30;62093;37.614;15.072;2024-01-16T10:04:17;16.12;61.20
73780;SHT30;62093;37.614;15.072;2024-01-16T10:06:45;16.15;61.20
73780;SHT30;62093;37.614;15.072;2024-01-16T10:09:15;16.15;61.09
73780;SHT30;62093;37.614;15.072;2024-01-16T10:11:41;16.16;60.95
73780;SHT30;62093;37.614;15.072;2024-01-16T10:14:08;16.18;61.03
73780;SHT30;62093;37.614;15.072;2024-01-16T10:19:27;16.19;60.96
73780;SHT30;62093;37.614;15.072;2024-01-16T10:22:04;16.21;60.92
73780;SHT30;62093;37.614;15.072;2024-01-16T10:24:30;16.21;60.95
73780;SHT30;62093;37.614;15.072;2024-01-16T10:27:00;16.21;60.83
73780;SHT30;62093;37.614;15.072;2024-01-16T10:29:28;16.22;60.73
73780;SHT30;62093;37.614;15.072;2024-01-16T10:31:55;16.23;60.74
73780;SHT30;62093;37.614;15.072;2024-01-16T10:34:22;16.23;60.78
73780;SHT30;62093;37.614;15.072;2024-01-16T10:36:50;16.23;60.90
73780;SHT30;62093;37.614;15.072;2024-01-16T10:39:18;16.22;60.88
73780;SHT30;62093;37.614;15.072;2024-01-16T10:41:54;16.23;60.86
73780;SHT30;62093;37.614;15.072;2024-01-16T10:44:21;16.26;60.55
73780;SHT30;62093;37.614;15.072;2024-01-16T10:46:47;16.22;60.79
73780;SHT30;62093;37.614;15.072;2024-01-16T10:49:12;16.25;60.64
73780;SHT30;62093;37.614;15.072;2024-01-16T10:51:38;16.25;60.86
73780;SHT30;62093;37.614;15.072;2024-01-16T10:54:12;16.25;60.90
73780;SHT30;62093;37.614;15.072;2024-01-16T10:56:46;16.28;60.84
73780;SHT30;62093;37.614;15.072;2024-01-16T10:59:31;16.28;60.73
73780;SHT30;62093;37.614;15.072;2024-01-16T11:02:01;16.29;60.90
73780;SHT30;62093;37.614;15.072;2024-01-16T11:04:30;16.25;60.87
73780;SHT30;62093;37.614;15.072;2024-01-16T11:06:57;16.25;60.99
73780;SHT30;62093;37.614;15.072;2024-01-16T11:09:24;16.25;60.83
73780;SHT30;62093;37.614;15.072;2024-01-16T11:11:53;16.28;60.93
73780;SHT30;62093;37.614;15.072;2024-01-16T11:14:22;16.29;60.78
73780;SHT30;62093;37.614;15.072;2024-01-16T11:16:49;16.28;60.92
73780;SHT30;62093;37.614;15.072;2024-01-16T11:19:16;16.28;60.89
73780;SHT30;62093;37.614;15.072;2024-01-16T11:21:44;16.29;60.77
73780;SHT30;62093;37.614;15.072;2024-01-16T11:24:12;16.30;60.64
73780;SHT30;62093;37.614;15.072;2024-01-16T11:26:40;16.29;60.79
73780;SHT30;62093;37.614;15.072;2024-01-16T11:31:55;16.29;60.74
73780;SHT30;62093;37.614;15.072;2024-01-16T11:37:13;16.32;60.68
73780;SHT30;62093;37.614;15.072;2024-01-16T11:39:39;16.30;60.54
73780;SHT30;62093;37.614;15.072;2024-01-16T11:42:08;16.30;60.78
73780;SHT30;62093;37.614;15.072;2024-01-16T11:44:45;16.29;60.88
73780;SHT30;62093;37.614;15.072;2024-01-16T11:47:18;16.29;60.82
73780;SHT30;62093;37.614;15.072;2024-01-16T11:49:49;16.32;60.80
73780;SHT30;62093;37.614;15.072;2024-01-16T11:52:42;16.30;60.80
73780;SHT30;62093;37.614;15.072;2024-01-16T11:55:27;16.33;60.80
73780;SHT30;62093;37.614;15.072;2024-01-16T11:58:35;16.35;60.74
73780;SHT30;62093;37.614;15.072;2024-01-16T12:01:05;16.36;60.55
73780;SHT30;62093;37.614;15.072;2024-01-16T12:03:31;16.36;60.59
73780;SHT30;62093;37.614;15.072;2024-01-16T12:06:00;16.36;60.66
73780;SHT30;62093;37.614;15.072;2024-01-16T12:08:46;16.38;60.52
73780;SHT30;62093;37.614;15.072;2024-01-16T12:11:18;16.38;60.72
73780;SHT30;62093;37.614;15.072;2024-01-16T12:14:01;16.35;60.75
73780;SHT30;62093;37.614;15.072;2024-01-16T12:16:27;16.32;60.79
73780;SHT30;62093;37.614;15.072;2024-01-16T12:19:08;16.36;60.75
73780;SHT30;62093;37.614;15.072;2024-01-16T12:21:39;16.36;60.60
73780;SHT30;62093;37.614;15.072;2024-01-16T12:24:06;16.38;60.51
73780;SHT30;62093;37.614;15.072;2024-01-16T12:26:32;16.38;60.45
73780;SHT30;62093;37.614;15.072;2024-01-16T12:28:58;16.38;60.49
73780;SHT30;62093;37.614;15.072;2024-01-16T12:31:25;16.38;60.56
73780;SHT30;62093;37.614;15.072;2024-01-16T12:33:51;16.39;60.55
73780;SHT30;62093;37.614;15.072;2024-01-16T12:36:17;16.42;60.50
73780;SHT30;62093;37.614;15.072;2024-01-16T12:38:43;16.42;60.50
73780;SHT30;62093;37.614;15.072;2024-01-16T12:41:11;16.39;60.53
73780;SHT30;62093;37.614;15.072;2024-01-16T12:43:39;16.43;60.54
73780;SHT30;62093;37.614;15.072;2024-01-16T12:46:05;16.42;60.49
73780;SHT30;62093;37.614;15.072;2024-01-16T12:48:32;16.42;60.54
73780;SHT30;62093;37.614;15.072;2024-01-16T12:51:01;16.39;60.62
73780;SHT30;62093;37.614;15.072;2024-01-16T12:53:28;16.41;60.59
73780;SHT30;62093;37.614;15.072;2024-01-16T12:55:58;16.41;60.56
73780;SHT30;62093;37.614;15.072;2024-01-16T12:58:37;16.41;60.54
73780;SHT30;62093;37.614;15.072;2024-01-16T13:01:23;16.41;60.58
73780;SHT30;62093;37.614;15.072;2024-01-16T13:03:50;16.38;60.60
73780;SHT30;62093;37.614;15.072;2024-01-16T13:06:21;16.39;60.59
73780;SHT30;62093;37.614;15.072;2024-01-16T13:08:47;16.42;60.53
73780;SHT30;62093;37.614;15.072;2024-01-16T13:11:13;16.41;60.48
73780;SHT30;62093;37.614;15.072;2024-01-16T13:13:48;16.43;60.51
73780;SHT30;62093;37.614;15.072;2024-01-16T13:16:16;16.42;60.47
73780;SHT30;62093;37.614;15.072;2024-01-16T13:18:42;16.42;60.51
73780;SHT30;62093;37.614;15.072;2024-01-16T13:21:08;16.41;60.60
73780;SHT30;62093;37.614;15.072;2024-01-16T13:23:35;16.43;60.56
73780;SHT30;62093;37.614;15.072;2024-01-16T13:26:01;16.45;60.56
73780;SHT30;62093;37.614;15.072;2024-01-16T13:28:30;16.46;60.48
73780;SHT30;62093;37.614;15.072;2024-01-16T13:30:56;16.46;60.44
73780;SHT30;62093;37.614;15.072;2024-01-16T13:33:25;16.49;60.45
73780;SHT30;62093;37.614;15.072;2024-01-16T13:35:54;16.46;60.51
73780;SHT30;62093;37.614;15.072;2024-01-16T13:38:21;16.48;60.49
73780;SHT30;62093;37.614;15.072;2024-01-16T13:40:47;16.49;60.53
73780;SHT30;62093;37.614;15.072;2024-01-16T13:43:13;16.49;60.47
73780;SHT30;62093;37.614;15.072;2024-01-16T13:45:39;16.49;60.49
73780;SHT30;62093;37.614;15.072;2024-01-16T13:48:07;16.49;60.44
73780;SHT30;62093;37.614;15.072;2024-01-16T13:50:34;16.52;60.34
73780;SHT30;62093;37.614;15.072;2024-01-16T13:53:01;16.53;60.39
73780;SHT30;62093;37.614;15.072;2024-01-16T13:55:29;16.51;60.54
73780;SHT30;62093;37.614;15.072;2024-01-16T13:57:57;16.53;60.45
73780;SHT30;62093;37.614;15.072;2024-01-16T14:00:24;16.53;60.45
73780;SHT30;62093;37.614;15.072;2024-01-16T14:02:50;16.55;60.46
73780;SHT30;62093;37.614;15.072;2024-01-16T14:05:18;16.55;60.44
73780;SHT30;62093;37.614;15.072;2024-01-16T14:07:45;16.57;60.44
73780;SHT30;62093;37.614;15.072;2024-01-16T14:10:13;16.57;60.44
73780;SHT30;62093;37.614;15.072;2024-01-16T14:12:39;16.57;60.47
73780;SHT30;62093;37.614;15.072;2024-01-16T14:15:09;16.60;60.42
73780;SHT30;62093;37.614;15.072;2024-01-16T14:18:02;16.60;60.49
73780;SHT30;62093;37.614;15.072;2024-01-16T14:20:28;16.59;60.46
73780;SHT30;62093;37.614;15.072;2024-01-16T14:22:59;16.59;60.53
73780;SHT30;62093;37.614;15.072;2024-01-16T14:25:25;16.59;60.55
73780;SHT30;62093;37.614;15.072;2024-01-16T14:28:02;16.57;60.56
73780;SHT30;62093;37.614;15.072;2024-01-16T14:30:32;16.60;60.53
73780;SHT30;62093;37.614;15.072;2024-01-16T14:32:59;16.62;60.50
73780;SHT30;62093;37.614;15.072;2024-01-16T14:35:27;16.60;60.53
73780;SHT30;62093;37.614;15.072;2024-01-16T14:37:53;16.60;60.53
73780;SHT30;62093;37.614;15.072;2024-01-16T14:40:19;16.62;60.49
73780;SHT30;62093;37.614;15.072;2024-01-16T14:42:52;16.59;60.47
73780;SHT30;62093;37.614;15.072;2024-01-16T14:45:23;16.57;60.58
73780;SHT30;62093;37.614;15.072;2024-01-16T14:47:49;16.57;60.56
73780;SHT30;62093;37.614;15.072;2024-01-16T14:50:16;16.59;60.51
73780;SHT30;62093;37.614;15.072;2024-01-16T14:52:48;16.55;60.60
73780;SHT30;62093;37.614;15.072;2024-01-16T14:55:14;16.57;60.63
73780;SHT30;62093;37.614;15.072;2024-01-16T14:57:40;16.56;60.60
73780;SHT30;62093;37.614;15.072;2024-01-16T15:00:17;16.53;60.70
73780;SHT30;62093;37.614;15.072;2024-01-16T15:02:50;16.56;60.68
73780;SHT30;62093;37.614;15.072;2024-01-16T15:05:16;16.52;60.78
73780;SHT30;62093;37.614;15.072;2024-01-16T15:07:42;16.55;60.76
73780;SHT30;62093;37.614;15.072;2024-01-16T15:10:09;16.56;60.72
73780;SHT30;62093;37.614;15.072;2024-01-16T15:12:40;16.53;60.77
73780;SHT30;62093;37.614;15.072;2024-01-16T15:15:07;16.55;60.71
73780;SHT30;62093;37.614;15.072;2024-01-16T15:17:35;16.57;60.72
73780;SHT30;62093;37.614;15.072;2024-01-16T15:20:01;16.53;60.81
73780;SHT30;62093;37.614;15.072;2024-01-16T15:22:28;16.52;60.85
73780;SHT30;62093;37.614;15.072;2024-01-16T15:24:54;16.55;60.85